Relevés horaires St-Hubert (Belgique)


Relevés horaires à St-Hubert - Samedi 20 Févr. 2021
Heure UTC1 Température [°C] Vent [km/h] Hum. [%] Pres.4 [hPa] Visi. [Km] Nébu. [octa] Préc.5 [mm] Cond.
2m. Res. Ros. Dir.2 Vit. Moy. Raf.3
23:00 9.1 8.1 3.5 S 7.4 7.4 14.8 68 1014.7(0.9/3h) 40 0/8 -- --
22:00 9.1 8.1 3.5 SSE 7.4 9.3 16.7 68 1014.4(0.4/3h) 40 0/8 -- --
21:00 9.3 7.9 3.7 SSE 9.3 11.1 18.5 68 1013.9(0.6/3h) 35 0/8 -- --
20:00 9.7 8.1 4.1 SE 11.1 11.1 18.5 68 1013.6(0.4/3h) 35 0/8 -- --
19:00 9.4 7.7 4.7 SE 11.1 11.1 18.5 72 1013.8(0.5/3h) 28 0/8 -- --
18:00 9.6 8 4.9 SE 11.1 11.1 20.4 72 1013.2(0.1/3h) 30 0/8 0/12h
--
17:00 10.3 8.8 5.2 SE 11.1 11.1 18.5 71 1013(-0.3/3h) 28 0/8 -- --
16:00 11.5 10.5 5.5 SE 9.3 11.1 20.4 67 1012.8(-0.6/3h) 27 0/8 -- --
15:00 12.4 11.3 4.8 SSE 11.1 11.1 18.5 60 1012.6(-1.2/3h) 30 0/8 -- --
14:00 12.1 12 4.8 SSE 5.6 11.1 18.5 61 1013(-0.9/3h) 35 0/8 -- --
13:00 11.2 10.2 4.9 SSE 9.3 9.3 16.7 65 1013.6(-1.0/3h) 29 0/8 -- --
12:00 11.1 10.4 5.0 SSE 7.4 11.1 16.7 66 1014.2(-0.3/3h) 27 0/8 0/6h
--
11:00 9.6 8.3 5.2 SE 9.3 11.1 16.7 74 1014.5(-0.4/3h) 29 0/8 -- --
10:00 8.5 7.4 4.7 SSE 7.4 9.3 14.8 77 1015.3(0.2/3h) 27 0/8 -- --
09:00 6.4 4.5 4.1 SSE 9.3 9.3 16.7 85 1015.7(0.2/3h) 23 0/8 -- --
08:00 5.4 3.3 3.7 SSE 9.3 9.3 16.7 89 1016(0.6/3h) 19 0/8 -- --
07:00 5.1 3.4 3.4 SSE 7.4 9.3 14.8 89 1015.9(0.3/3h) 22 0/8 -- --
06:00 5.0 3.3 3.3 S 7.4 9.3 14.8 89 1015.8(0.0/3h) 28 0/8 0/12h
--
05:00 5.3 3.6 3.6 SSE 7.4 9.3 14.8 89 1015.4(-0.6/3h) 26 0/8 -- --
04:00 5.6 3.5 4.0 SSE 9.3 9.3 13.0 89 1015.5(-0.6/3h) 21 0/8 -- --
03:00 6.0 4.5 4.5 SSE 7.4 7.4 14.8 90 1015.5(-0.7/3h) 19 0/8 -- --
02:00 6.6 5.2 5.0 SSE 7.4 7.4 14.8 89 1015.7(-0.6/3h) 19 0/8 -- --
01:00 7.1 5.7 5.2 SSE 7.4 7.4 14.8 88 1015.8(-0.5/3h) 21 0/8 -- --
00:00 7.1 5.7 5.3 SSE 7.4 9.3 16.7 88 1016(-0.3/3h) 19 0/8 0/6h
0/24h
--

1 Coordinated Universal Time. Actuellement il est 11:00 locale et 09:00 UTC.

2 Le vent souffle depuis la direction indiquée vers la direction oposée.

3 Les rafales max. sont disponible 40 min après l'heure du relevé.

4 Pour les stations d'altitude (plus de 600m) le géopotentiel du niveau le plus proche de la pression obligatoire est indiqué.

5 Les stations disposant d'un diffuseur peuvent indiquer "trace". Cela signifie que des précipitations ont touchés le sol mais que la quantité est inférieure à 0.1 mm.

Récapitulatif de la journée
Température [°C] Vent [km/h] Ensoleillement4 [h] Precipitations totale5 [mm] Pression [Hpa]
Min1 Max.2 Moy.3 Max. Min Max.
5.0 12.7 9.7 20.4 0 h 0 min 0 1012.6 1016.0

1 Température minimale relevée entre 18:00 UTC la veille et 18:00 UTC le jour donné.

2 Température maximale relevée entre 06:00 UTC le jour donné et 06:00 UTC le lendemain.

3 Vent moyen de la journée basé sur les relevés horaires.

4 Ensoleillement en heures relevé entre 06:00 UTC la veille et 06:00 UTC le jour donné.

5 Précipitations totales tombées entre 06:00 UTC la jour donné et 06:00 UTC le lendemain.

Graphiques horaires